createdAt,value
2019-03-21T00:02:25.165Z,9.00
2019-03-21T00:04:53.090Z,9.00
2019-03-21T00:07:20.943Z,9.00
2019-03-21T00:09:53.339Z,8.90
2019-03-21T00:12:21.190Z,8.90
2019-03-21T00:14:56.306Z,8.90
2019-03-21T00:17:28.665Z,8.90
2019-03-21T00:19:56.541Z,8.90
2019-03-21T00:22:24.409Z,8.90
2019-03-21T00:24:52.222Z,8.90
2019-03-21T00:27:20.049Z,8.90
2019-03-21T00:29:47.948Z,8.90
2019-03-21T00:32:15.828Z,8.90
2019-03-21T00:34:43.706Z,8.90
2019-03-21T00:37:11.615Z,8.90
2019-03-21T00:39:39.531Z,8.90
2019-03-21T00:42:07.468Z,8.90
2019-03-21T00:44:35.311Z,8.90
2019-03-21T00:47:03.304Z,8.90
2019-03-21T00:49:31.221Z,8.90
2019-03-21T00:51:59.163Z,8.90
2019-03-21T00:54:27.075Z,8.90
2019-03-21T00:56:55.014Z,8.90
2019-03-21T00:59:22.906Z,8.90
2019-03-21T01:01:50.841Z,8.90
2019-03-21T01:04:19.154Z,8.90
2019-03-21T01:06:47.035Z,8.90
2019-03-21T01:09:15.924Z,8.90
2019-03-21T01:11:43.804Z,8.90
2019-03-21T01:14:11.675Z,8.90
2019-03-21T01:16:39.480Z,8.90
2019-03-21T01:19:07.349Z,8.90
2019-03-21T01:21:35.195Z,8.90
2019-03-21T01:24:03.132Z,8.90
2019-03-21T01:26:30.940Z,8.90
2019-03-21T01:28:58.780Z,8.90
2019-03-21T01:31:26.678Z,8.90
2019-03-21T01:33:54.540Z,8.90
2019-03-21T01:36:22.940Z,8.90
2019-03-21T01:38:50.821Z,8.90
2019-03-21T01:41:19.253Z,8.90
2019-03-21T01:43:47.316Z,8.90
2019-03-21T01:46:16.371Z,8.90
2019-03-21T01:48:44.202Z,8.80
2019-03-21T01:51:12.052Z,8.80
2019-03-21T01:53:39.916Z,8.80
2019-03-21T01:56:07.851Z,8.80
2019-03-21T01:58:35.718Z,8.80
2019-03-21T02:01:03.781Z,8.80
2019-03-21T02:03:31.636Z,8.80
2019-03-21T02:05:59.537Z,8.80
2019-03-21T02:08:27.707Z,8.80
2019-03-21T02:10:56.217Z,8.80
2019-03-21T02:13:24.519Z,8.90
2019-03-21T02:15:52.385Z,8.90
2019-03-21T02:18:20.445Z,8.90
2019-03-21T02:20:48.360Z,8.90
2019-03-21T02:23:16.217Z,8.90
2019-03-21T02:25:44.909Z,8.90
2019-03-21T02:28:12.802Z,8.90
2019-03-21T02:30:44.495Z,8.90
2019-03-21T02:33:16.643Z,8.90
2019-03-21T02:35:44.581Z,8.90
2019-03-21T02:38:12.456Z,8.90
2019-03-21T02:40:40.996Z,8.90
2019-03-21T02:43:08.904Z,8.90
2019-03-21T02:45:36.782Z,8.90
2019-03-21T02:48:04.769Z,8.90
2019-03-21T02:50:33.691Z,8.90
2019-03-21T02:53:01.771Z,8.90
2019-03-21T02:55:29.723Z,8.90
2019-03-21T02:57:57.740Z,8.90
2019-03-21T03:00:29.966Z,8.00
2019-03-21T03:02:58.506Z,8.90
2019-03-21T03:05:27.741Z,8.90
2019-03-21T03:07:55.652Z,8.90
2019-03-21T03:10:25.302Z,8.90
2019-03-21T03:12:53.179Z,8.90
2019-03-21T03:15:23.688Z,8.90
2019-03-21T03:17:51.622Z,8.90
2019-03-21T03:20:19.549Z,8.90
2019-03-21T03:22:47.404Z,8.90
2019-03-21T03:25:16.734Z,8.90
2019-03-21T03:27:45.969Z,8.90
2019-03-21T03:30:15.360Z,8.90
2019-03-21T03:32:43.194Z,8.90
2019-03-21T03:35:11.900Z,8.90
2019-03-21T03:37:39.942Z,8.90
2019-03-21T03:40:09.330Z,8.90
2019-03-21T03:42:37.137Z,8.90
2019-03-21T03:45:06.540Z,8.90
2019-03-21T03:47:34.838Z,8.90
2019-03-21T03:50:02.657Z,8.90
2019-03-21T03:52:30.494Z,9.00
2019-03-21T03:54:58.436Z,9.00
2019-03-21T03:57:26.284Z,9.00
2019-03-21T03:59:54.235Z,9.00
2019-03-21T04:02:22.075Z,9.00
2019-03-21T04:04:50.002Z,9.00
2019-03-21T04:07:17.932Z,9.00
2019-03-21T04:09:46.129Z,9.00
2019-03-21T04:12:14.410Z,9.00
2019-03-21T04:14:42.600Z,9.00
2019-03-21T04:17:10.527Z,9.00
2019-03-21T04:19:38.371Z,9.00
2019-03-21T04:22:06.254Z,9.00
2019-03-21T04:24:34.158Z,9.00
2019-03-21T04:27:02.111Z,9.00
2019-03-21T04:29:29.955Z,9.00
2019-03-21T04:31:57.809Z,9.00
2019-03-21T04:34:25.623Z,9.00
2019-03-21T04:36:53.487Z,9.00
2019-03-21T04:39:21.390Z,9.00
2019-03-21T04:41:49.198Z,9.00
2019-03-21T04:44:17.019Z,9.00
2019-03-21T04:46:44.879Z,9.00
2019-03-21T04:49:12.831Z,9.00
2019-03-21T04:51:40.745Z,9.10
2019-03-21T04:54:08.618Z,9.10
2019-03-21T04:56:36.514Z,9.10
2019-03-21T04:59:04.458Z,9.10
2019-03-21T05:01:32.311Z,9.10
2019-03-21T05:04:00.283Z,9.00
2019-03-21T05:06:28.143Z,9.00
2019-03-21T05:08:55.993Z,9.00
2019-03-21T05:11:23.807Z,9.00
2019-03-21T05:13:51.690Z,9.00
2019-03-21T05:16:19.601Z,9.00
2019-03-21T05:18:48.991Z,9.00
2019-03-21T05:21:20.986Z,9.00
2019-03-21T05:23:48.852Z,9.00
2019-03-21T05:26:16.686Z,9.00
2019-03-21T05:28:44.551Z,9.00
2019-03-21T05:31:19.959Z,9.00
2019-03-21T05:33:47.785Z,9.00
2019-03-21T05:36:15.639Z,9.00
2019-03-21T05:38:43.487Z,9.00
2019-03-21T05:41:11.306Z,9.00
2019-03-21T05:43:40.694Z,9.00
2019-03-21T05:46:08.561Z,9.10
2019-03-21T05:48:36.371Z,9.10
2019-03-21T05:51:04.300Z,9.10
2019-03-21T05:53:32.211Z,9.20
2019-03-21T05:56:00.032Z,9.20
2019-03-21T05:58:27.912Z,9.20
2019-03-21T06:01:00.498Z,9.10
2019-03-21T06:03:33.089Z,9.20
2019-03-21T06:06:05.465Z,9.10
2019-03-21T06:08:34.759Z,9.10
2019-03-21T06:11:02.669Z,9.10
2019-03-21T06:13:30.562Z,9.10
2019-03-21T06:16:08.283Z,9.10
2019-03-21T06:18:40.335Z,9.20
2019-03-21T06:21:12.799Z,9.20
2019-03-21T06:23:45.236Z,9.20
2019-03-21T06:26:23.640Z,9.20
2019-03-21T06:28:51.492Z,9.20
2019-03-21T06:31:19.350Z,9.20
2019-03-21T06:33:47.234Z,9.20
2019-03-21T06:36:15.065Z,9.30
2019-03-21T06:38:42.911Z,9.30
2019-03-21T06:41:10.740Z,9.30
2019-03-21T06:43:38.609Z,9.30
2019-03-21T06:46:06.504Z,9.30
2019-03-21T06:48:34.427Z,9.40
2019-03-21T06:51:02.329Z,9.40
2019-03-21T06:53:30.156Z,9.40
2019-03-21T06:55:58.006Z,9.40
2019-03-21T06:58:25.971Z,9.50
2019-03-21T07:00:53.906Z,9.50
2019-03-21T07:03:21.720Z,9.50
2019-03-21T07:05:49.713Z,9.50
2019-03-21T07:08:17.531Z,9.50
2019-03-21T07:10:45.324Z,9.60
2019-03-21T07:13:13.282Z,9.60
2019-03-21T07:15:41.180Z,9.60
2019-03-21T07:18:09.136Z,9.60
2019-03-21T07:20:36.982Z,9.70
2019-03-21T07:23:04.866Z,9.70
2019-03-21T07:25:32.691Z,9.70
2019-03-21T07:28:00.553Z,9.70
2019-03-21T07:30:28.337Z,9.70
2019-03-21T07:32:56.232Z,9.70
2019-03-21T07:35:24.087Z,9.70
2019-03-21T07:37:51.990Z,9.80
2019-03-21T07:40:19.815Z,9.80
2019-03-21T07:42:47.660Z,9.80
2019-03-21T07:45:15.612Z,9.80
2019-03-21T07:47:43.476Z,9.90
2019-03-21T07:50:12.109Z,9.90
2019-03-21T07:52:39.933Z,9.90
2019-03-21T07:55:08.436Z,9.90
2019-03-21T07:57:36.342Z,10.00
2019-03-21T08:00:08.737Z,10.00
2019-03-21T08:02:36.606Z,10.00
2019-03-21T08:05:05.533Z,10.10
2019-03-21T08:07:33.392Z,10.10
2019-03-21T08:10:01.298Z,10.20
2019-03-21T08:12:29.149Z,10.20
2019-03-21T08:14:57.044Z,10.20
2019-03-21T08:17:24.928Z,10.30
2019-03-21T08:19:52.757Z,10.30
2019-03-21T08:22:20.624Z,10.30
2019-03-21T08:24:48.440Z,10.40
2019-03-21T08:27:16.363Z,10.40
2019-03-21T08:29:44.163Z,10.40
2019-03-21T08:32:12.010Z,10.40
2019-03-21T08:34:39.858Z,10.40
2019-03-21T08:37:07.799Z,10.50
2019-03-21T08:39:35.582Z,10.50
2019-03-21T08:42:03.539Z,10.50
2019-03-21T08:44:31.445Z,10.50
2019-03-21T08:46:59.420Z,10.60
2019-03-21T08:49:27.322Z,10.70
2019-03-21T08:51:55.149Z,10.80
2019-03-21T08:54:23.079Z,10.80
2019-03-21T08:56:51.045Z,10.80
2019-03-21T08:59:20.419Z,10.90
2019-03-21T09:01:48.379Z,11.00
2019-03-21T09:04:16.251Z,11.10
2019-03-21T09:06:44.175Z,11.10
2019-03-21T09:09:12.123Z,11.10
2019-03-21T09:11:40.011Z,11.20
2019-03-21T09:14:07.895Z,11.30
2019-03-21T09:16:35.705Z,11.50
2019-03-21T09:19:03.662Z,11.40
2019-03-21T09:21:31.496Z,11.50
2019-03-21T09:23:59.328Z,11.50
2019-03-21T09:26:27.182Z,11.60
2019-03-21T09:28:55.113Z,11.60
2019-03-21T09:31:23.059Z,11.70
2019-03-21T09:33:50.931Z,11.80
2019-03-21T09:36:18.820Z,11.90
2019-03-21T09:38:46.768Z,12.00
2019-03-21T09:41:14.672Z,12.10
2019-03-21T09:43:42.505Z,12.00
2019-03-21T09:46:10.463Z,12.20
2019-03-21T09:48:38.252Z,12.20
2019-03-21T09:51:06.116Z,12.30
2019-03-21T09:53:34.016Z,12.40
2019-03-21T09:56:01.880Z,12.50
2019-03-21T09:58:29.699Z,12.60
2019-03-21T10:00:57.647Z,12.70
2019-03-21T10:03:25.540Z,12.90
2019-03-21T10:05:53.418Z,13.10
2019-03-21T10:08:21.318Z,13.10
2019-03-21T10:10:49.272Z,13.10
2019-03-21T10:13:17.151Z,12.90
2019-03-21T10:15:45.044Z,13.00
2019-03-21T10:18:12.931Z,13.00
2019-03-21T10:20:40.768Z,13.00
2019-03-21T10:23:08.624Z,13.10
2019-03-21T10:25:36.545Z,13.20
2019-03-21T10:28:04.439Z,13.40
2019-03-21T10:30:36.171Z,13.70
2019-03-21T10:33:05.563Z,13.90
2019-03-21T10:35:33.401Z,14.10
2019-03-21T10:38:01.355Z,14.10
2019-03-21T10:40:29.265Z,14.10
2019-03-21T10:42:57.112Z,14.20
2019-03-21T10:45:24.939Z,14.40
2019-03-21T10:47:52.800Z,14.40
2019-03-21T10:50:27.810Z,14.30
2019-03-21T10:52:55.761Z,14.50
2019-03-21T10:55:23.683Z,14.60
2019-03-21T10:57:51.592Z,14.70
2019-03-21T11:00:19.474Z,14.70
2019-03-21T11:02:47.400Z,15.10
2019-03-21T11:05:15.295Z,15.30
2019-03-21T11:07:43.252Z,15.10
2019-03-21T11:10:11.217Z,15.10
2019-03-21T11:12:39.130Z,15.30
2019-03-21T11:15:07.356Z,15.40
2019-03-21T11:17:35.210Z,15.60
2019-03-21T11:20:04.127Z,15.50
2019-03-21T11:22:32.083Z,15.60
2019-03-21T11:24:59.963Z,15.50
2019-03-21T11:27:27.779Z,15.90
2019-03-21T11:29:55.697Z,15.80
2019-03-21T11:32:23.519Z,15.70
2019-03-21T11:34:51.352Z,15.80
2019-03-21T11:37:19.243Z,16.20
2019-03-21T11:39:47.136Z,16.40
2019-03-21T11:42:14.975Z,16.60
2019-03-21T11:44:42.834Z,16.40
2019-03-21T11:47:10.772Z,16.60
2019-03-21T11:49:38.672Z,16.30
2019-03-21T11:52:17.534Z,16.50
2019-03-21T11:54:36.076Z,16.50
2019-03-21T11:57:03.952Z,16.50
2019-03-21T11:59:46.292Z,16.30
2019-03-21T12:02:01.388Z,16.30
2019-03-21T12:04:29.365Z,15.80
2019-03-21T12:06:57.232Z,15.80
2019-03-21T12:09:25.091Z,15.70
2019-03-21T12:11:53.039Z,15.80
2019-03-21T12:14:20.919Z,15.70
2019-03-21T12:16:48.799Z,15.60
2019-03-21T12:19:16.611Z,15.90
2019-03-21T12:21:44.497Z,16.20
2019-03-21T12:24:12.333Z,16.80
2019-03-21T12:26:40.211Z,17.30
2019-03-21T12:29:08.059Z,17.40
2019-03-21T12:31:36.475Z,17.60
2019-03-21T12:34:04.415Z,17.90
2019-03-21T12:36:32.290Z,17.70
2019-03-21T12:39:00.136Z,17.60
2019-03-21T12:41:28.090Z,17.20
2019-03-21T12:43:55.983Z,17.20
2019-03-21T12:46:23.774Z,17.40
2019-03-21T12:48:51.662Z,17.20
2019-03-21T12:51:19.459Z,17.40
2019-03-21T12:53:47.347Z,17.60
2019-03-21T12:56:15.198Z,17.70
2019-03-21T12:58:43.047Z,17.90
2019-03-21T13:01:10.914Z,18.00
2019-03-21T13:03:38.852Z,17.90
2019-03-21T13:06:06.776Z,17.60
2019-03-21T13:08:34.605Z,17.30
2019-03-21T13:11:02.500Z,17.10
2019-03-21T13:13:30.414Z,17.00
2019-03-21T13:15:58.626Z,16.50
2019-03-21T13:18:26.428Z,16.50
2019-03-21T13:20:54.318Z,16.60
2019-03-21T13:23:22.240Z,16.70
2019-03-21T13:25:50.094Z,16.90
2019-03-21T13:28:18.014Z,17.10
2019-03-21T13:30:45.963Z,17.50
2019-03-21T13:33:13.811Z,17.60
2019-03-21T13:35:41.663Z,18.00
2019-03-21T13:38:09.483Z,18.40
2019-03-21T13:40:37.439Z,18.30
2019-03-21T13:43:05.337Z,18.30
2019-03-21T13:45:33.203Z,18.30
2019-03-21T13:48:01.073Z,18.40
2019-03-21T13:50:28.993Z,18.80
2019-03-21T13:53:04.626Z,18.80
2019-03-21T13:55:26.406Z,19.00
2019-03-21T13:57:54.271Z,19.50
2019-03-21T14:00:22.135Z,19.60
2019-03-21T14:02:50.127Z,19.10
2019-03-21T14:05:18.047Z,19.00
2019-03-21T14:07:45.958Z,18.70
2019-03-21T14:10:13.905Z,18.50
2019-03-21T14:12:42.694Z,18.90
2019-03-21T14:15:17.285Z,19.00
2019-03-21T14:17:45.288Z,19.30
2019-03-21T14:20:14.106Z,19.40
2019-03-21T14:22:41.923Z,20.00
2019-03-21T14:25:09.856Z,20.00
2019-03-21T14:27:37.779Z,20.50
2019-03-21T14:30:06.218Z,20.10
2019-03-21T14:32:34.108Z,20.50
2019-03-21T14:35:02.063Z,20.70
2019-03-21T14:37:29.902Z,20.60
2019-03-21T14:39:57.786Z,21.20
2019-03-21T14:42:25.684Z,21.00
2019-03-21T14:44:53.631Z,20.60
2019-03-21T14:47:21.523Z,20.70
2019-03-21T14:49:49.331Z,21.00
2019-03-21T14:52:17.260Z,21.00
2019-03-21T14:54:45.155Z,20.80
2019-03-21T14:57:13.056Z,21.10
2019-03-21T14:59:40.939Z,21.40
2019-03-21T15:02:08.883Z,21.40
2019-03-21T15:04:36.746Z,21.40
2019-03-21T15:07:04.670Z,21.60
2019-03-21T15:09:32.534Z,21.40
2019-03-21T15:12:00.472Z,20.40
2019-03-21T15:14:28.455Z,20.30
2019-03-21T15:16:56.279Z,19.80
2019-03-21T15:19:24.116Z,19.10
2019-03-21T15:21:51.971Z,18.60
2019-03-21T15:24:19.808Z,18.20
2019-03-21T15:26:47.695Z,17.90
2019-03-21T15:29:15.564Z,17.80
2019-03-21T15:31:43.502Z,18.50
2019-03-21T15:34:11.352Z,19.30
2019-03-21T15:36:39.250Z,20.00
2019-03-21T15:39:07.635Z,20.20
2019-03-21T15:41:36.210Z,19.60
2019-03-21T15:44:04.102Z,19.30
2019-03-21T15:46:31.958Z,19.00
2019-03-21T15:48:59.810Z,18.60
2019-03-21T15:51:27.726Z,18.80
2019-03-21T15:53:56.720Z,19.00
2019-03-21T15:56:24.597Z,19.50
2019-03-21T15:58:52.464Z,20.10
2019-03-21T16:01:20.356Z,20.50
2019-03-21T16:03:48.221Z,20.40
2019-03-21T16:06:16.288Z,20.30
2019-03-21T16:08:44.112Z,20.30
2019-03-21T16:11:11.949Z,19.60
2019-03-21T16:13:39.880Z,19.10
2019-03-21T16:16:07.799Z,18.80
2019-03-21T16:18:35.665Z,18.80
2019-03-21T16:21:05.892Z,19.00
2019-03-21T16:23:33.078Z,18.90
2019-03-21T16:26:01.111Z,18.80
2019-03-21T16:28:28.973Z,18.80
2019-03-21T16:30:56.882Z,18.80
2019-03-21T16:33:24.778Z,19.20
2019-03-21T16:35:52.616Z,18.90
2019-03-21T16:38:20.440Z,18.70
2019-03-21T16:40:48.311Z,18.60
2019-03-21T16:43:16.271Z,18.40
2019-03-21T16:45:44.126Z,18.20
2019-03-21T16:48:12.038Z,18.00
2019-03-21T16:50:39.888Z,17.80
2019-03-21T16:53:07.895Z,17.70
2019-03-21T16:55:35.757Z,17.40
2019-03-21T16:58:03.587Z,17.10
2019-03-21T17:00:31.467Z,16.80
2019-03-21T17:02:59.256Z,16.60
2019-03-21T17:05:27.210Z,16.60
2019-03-21T17:07:55.053Z,15.30
2019-03-21T17:10:22.876Z,16.40
2019-03-21T17:12:50.750Z,16.20
2019-03-21T17:15:18.653Z,16.00
2019-03-21T17:17:46.557Z,15.80
2019-03-21T17:20:14.605Z,15.60
2019-03-21T17:22:42.498Z,15.30
2019-03-21T17:25:10.637Z,15.10
2019-03-21T17:27:38.518Z,15.00
2019-03-21T17:30:10.899Z,14.70
2019-03-21T17:32:38.699Z,14.60
2019-03-21T17:35:06.750Z,14.40
2019-03-21T17:37:34.706Z,14.20
2019-03-21T17:40:02.655Z,14.00
2019-03-21T17:42:30.567Z,13.90
2019-03-21T17:44:58.424Z,13.70
2019-03-21T17:47:26.309Z,13.60
2019-03-21T17:49:54.123Z,13.50
2019-03-21T17:52:22.025Z,13.30
2019-03-21T17:54:49.862Z,13.20
2019-03-21T17:57:17.708Z,13.10
2019-03-21T17:59:45.582Z,12.90
2019-03-21T18:02:13.847Z,12.80
2019-03-21T18:04:41.777Z,12.70
2019-03-21T18:07:09.698Z,12.60
2019-03-21T18:09:37.633Z,12.50
2019-03-21T18:12:05.491Z,12.40
2019-03-21T18:14:33.290Z,12.20
2019-03-21T18:17:01.245Z,12.20
2019-03-21T18:19:29.191Z,12.10
2019-03-21T18:21:57.064Z,12.00
2019-03-21T18:24:25.024Z,11.90
2019-03-21T18:26:52.903Z,11.80
2019-03-21T18:29:20.739Z,11.70
2019-03-21T18:31:48.713Z,11.60
2019-03-21T18:34:16.504Z,11.60
2019-03-21T18:36:44.376Z,11.50
2019-03-21T18:39:14.233Z,11.40
2019-03-21T18:41:41.774Z,11.40
2019-03-21T18:44:09.595Z,11.30
2019-03-21T18:46:37.474Z,11.20
2019-03-21T18:49:05.321Z,11.10
2019-03-21T18:51:33.170Z,11.00
2019-03-21T18:54:01.005Z,10.90
2019-03-21T18:56:28.901Z,10.90
2019-03-21T18:58:56.807Z,10.80
2019-03-21T19:01:25.729Z,10.80
2019-03-21T19:03:53.683Z,10.80
2019-03-21T19:06:21.666Z,10.70
2019-03-21T19:08:49.495Z,11.00
2019-03-21T19:11:17.311Z,10.60
2019-03-21T19:13:45.175Z,10.50
2019-03-21T19:16:13.046Z,10.50
2019-03-21T19:18:40.923Z,10.40
2019-03-21T19:21:08.819Z,10.40
2019-03-21T19:23:37.268Z,10.30
2019-03-21T19:26:05.505Z,10.30
2019-03-21T19:28:33.450Z,10.20
2019-03-21T19:31:01.291Z,10.10
2019-03-21T19:33:29.132Z,10.00
2019-03-21T19:35:57.112Z,9.80
2019-03-21T19:38:25.081Z,9.70
2019-03-21T19:40:52.875Z,9.60
2019-03-21T19:43:20.704Z,9.60
2019-03-21T19:45:48.542Z,9.50
2019-03-21T19:48:16.409Z,9.50
2019-03-21T19:50:44.285Z,9.40
2019-03-21T19:53:12.223Z,9.40
2019-03-21T19:55:40.223Z,9.30
2019-03-21T19:58:08.152Z,9.30
2019-03-21T20:00:36.033Z,9.20
2019-03-21T20:03:04.001Z,9.20
2019-03-21T20:05:31.980Z,9.20
2019-03-21T20:07:59.822Z,9.10
2019-03-21T20:10:27.664Z,9.10
2019-03-21T20:12:55.479Z,9.10
2019-03-21T20:15:23.308Z,9.10
2019-03-21T20:17:51.169Z,9.10
2019-03-21T20:20:19.027Z,9.00
2019-03-21T20:22:46.964Z,9.00
2019-03-21T20:25:14.886Z,8.90
2019-03-21T20:27:42.773Z,8.90
2019-03-21T20:30:12.297Z,8.80
2019-03-21T20:32:40.247Z,8.80
2019-03-21T20:35:08.227Z,8.80
2019-03-21T20:37:36.129Z,8.80
2019-03-21T20:40:05.823Z,8.80
2019-03-21T20:42:33.679Z,8.70
2019-03-21T20:45:01.482Z,8.70
2019-03-21T20:47:29.401Z,8.60
2019-03-21T20:49:57.196Z,8.50
2019-03-21T20:52:25.047Z,8.50
2019-03-21T20:54:53.088Z,8.50
2019-03-21T20:57:21.149Z,8.50
2019-03-21T20:59:49.037Z,8.40
2019-03-21T21:02:17.014Z,8.40
2019-03-21T21:04:45.023Z,8.30
2019-03-21T21:07:12.946Z,8.30
2019-03-21T21:09:40.859Z,8.20
2019-03-21T21:12:08.761Z,8.20
2019-03-21T21:14:36.667Z,8.10
2019-03-21T21:17:04.654Z,8.10
2019-03-21T21:19:32.493Z,8.10
2019-03-21T21:22:00.314Z,8.10
2019-03-21T21:24:28.254Z,8.10
2019-03-21T21:26:56.214Z,8.00
2019-03-21T21:29:24.129Z,8.00
2019-03-21T21:31:52.248Z,8.00
2019-03-21T21:34:20.329Z,8.00
2019-03-21T21:36:50.807Z,8.00
2019-03-21T21:39:18.477Z,7.90
2019-03-21T21:41:46.400Z,7.90
2019-03-21T21:44:14.432Z,7.90
2019-03-21T21:46:42.293Z,7.80
2019-03-21T21:49:12.806Z,7.80
2019-03-21T21:51:39.695Z,7.70
2019-03-21T21:54:07.822Z,7.70
2019-03-21T21:56:35.965Z,7.70
2019-03-21T21:59:04.079Z,7.70
2019-03-21T22:01:32.106Z,7.70
2019-03-21T22:04:04.970Z,7.60
2019-03-21T22:06:29.732Z,7.60
2019-03-21T22:08:57.887Z,7.50
2019-03-21T22:11:26.004Z,7.50
2019-03-21T22:13:54.034Z,7.40
2019-03-21T22:16:22.157Z,7.40
2019-03-21T22:18:50.396Z,7.30
2019-03-21T22:21:18.510Z,7.30
2019-03-21T22:23:46.606Z,7.30
2019-03-21T22:26:14.499Z,7.20
2019-03-21T22:28:42.379Z,7.10
2019-03-21T22:31:10.211Z,7.10
2019-03-21T22:33:38.137Z,7.10
2019-03-21T22:36:06.631Z,7.10
2019-03-21T22:38:34.500Z,7.10
2019-03-21T22:41:02.352Z,7.00
2019-03-21T22:43:30.189Z,7.00
2019-03-21T22:45:58.180Z,7.00
2019-03-21T22:48:26.025Z,6.90
2019-03-21T22:50:53.892Z,6.80
2019-03-21T22:53:21.742Z,6.80
2019-03-21T22:55:49.597Z,6.70
2019-03-21T22:58:17.482Z,6.70
2019-03-21T23:00:47.053Z,6.60
2019-03-21T23:03:15.035Z,6.60
2019-03-21T23:05:42.980Z,6.60
2019-03-21T23:08:10.901Z,6.70
2019-03-21T23:10:38.814Z,6.70
2019-03-21T23:13:06.822Z,6.70
2019-03-21T23:15:34.711Z,6.60
2019-03-21T23:18:02.534Z,6.60
2019-03-21T23:20:30.487Z,6.60
2019-03-21T23:22:58.409Z,6.50
2019-03-21T23:25:26.297Z,6.50
2019-03-21T23:27:54.104Z,6.50
2019-03-21T23:30:22.003Z,6.50
2019-03-21T23:32:49.812Z,6.50
2019-03-21T23:35:17.766Z,6.40
2019-03-21T23:37:45.575Z,6.40
2019-03-21T23:40:14.136Z,6.40
2019-03-21T23:42:41.985Z,6.30
2019-03-21T23:45:10.529Z,6.30
2019-03-21T23:47:38.372Z,6.30
2019-03-21T23:50:07.740Z,6.30
2019-03-21T23:52:35.643Z,6.30
2019-03-21T23:55:04.166Z,6.30
2019-03-21T23:57:31.970Z,6.30
2019-03-21T23:59:59.844Z,6.30
